sensor_id;sensor_type;location;lat;lon;timestamp;pressure;altitude;pressure_sealevel;temperature;humidity
6778;BME280;3426;52.244;10.534;2023-03-18T00:00:00;99999.50;;;15.40;44.72
6778;BME280;3426;52.244;10.534;2023-03-18T00:02:27;100012.16;;;15.37;45.75
6778;BME280;3426;52.244;10.534;2023-03-18T00:04:53;100000.16;;;15.11;45.61
6778;BME280;3426;52.244;10.534;2023-03-18T00:07:19;99999.25;;;15.22;45.03
6778;BME280;3426;52.244;10.534;2023-03-18T00:09:46;99997.56;;;15.21;44.38
6778;BME280;3426;52.244;10.534;2023-03-18T00:12:13;99996.91;;;15.28;44.71
6778;BME280;3426;52.244;10.534;2023-03-18T00:14:39;99992.16;;;15.32;44.37
6778;BME280;3426;52.244;10.534;2023-03-18T00:17:06;99993.19;;;15.20;44.85
6778;BME280;3426;52.244;10.534;2023-03-18T00:19:33;99998.13;;;15.24;45.44
6778;BME280;3426;52.244;10.534;2023-03-18T00:21:59;99997.16;;;15.25;46.13
6778;BME280;3426;52.244;10.534;2023-03-18T00:24:26;100003.47;;;15.24;45.63
6778;BME280;3426;52.244;10.534;2023-03-18T00:26:53;99999.81;;;15.25;45.37
6778;BME280;3426;52.244;10.534;2023-03-18T00:29:20;100001.91;;;15.22;45.66
6778;BME280;3426;52.244;10.534;2023-03-18T00:31:46;100004.03;;;15.07;46.80
6778;BME280;3426;52.244;10.534;2023-03-18T00:34:13;100012.59;;;15.22;45.65
6778;BME280;3426;52.244;10.534;2023-03-18T00:36:40;100013.16;;;15.25;45.01
6778;BME280;3426;52.244;10.534;2023-03-18T00:39:06;100009.25;;;15.29;44.69
6778;BME280;3426;52.244;10.534;2023-03-18T00:41:34;100015.31;;;15.31;44.09
6778;BME280;3426;52.244;10.534;2023-03-18T00:44:03;100016.66;;;15.26;44.00
6778;BME280;3426;52.244;10.534;2023-03-18T00:46:33;100016.38;;;15.40;44.06
6778;BME280;3426;52.244;10.534;2023-03-18T00:49:02;100010.91;;;15.42;43.88
6778;BME280;3426;52.244;10.534;2023-03-18T00:51:32;100018.34;;;15.38;44.02
6778;BME280;3426;52.244;10.534;2023-03-18T00:54:01;100023.19;;;15.54;43.17
6778;BME280;3426;52.244;10.534;2023-03-18T00:56:30;100020.66;;;15.52;43.40
6778;BME280;3426;52.244;10.534;2023-03-18T00:58:57;100012.63;;;15.63;42.83
6778;BME280;3426;52.244;10.534;2023-03-18T01:01:24;100015.06;;;15.55;42.91
6778;BME280;3426;52.244;10.534;2023-03-18T01:03:51;100021.91;;;15.69;42.15
6778;BME280;3426;52.244;10.534;2023-03-18T01:06:26;100016.59;;;15.69;42.17
6778;BME280;3426;52.244;10.534;2023-03-18T01:08:54;100021.59;;;15.83;42.04
6778;BME280;3426;52.244;10.534;2023-03-18T01:11:22;100031.75;;;15.89;41.91
6778;BME280;3426;52.244;10.534;2023-03-18T01:13:48;100027.41;;;15.98;41.78
6778;BME280;3426;52.244;10.534;2023-03-18T01:16:15;100026.56;;;15.98;41.86
6778;BME280;3426;52.244;10.534;2023-03-18T01:18:42;100019.69;;;15.95;42.08
6778;BME280;3426;52.244;10.534;2023-03-18T01:21:09;100020.88;;;15.60;42.73
6778;BME280;3426;52.244;10.534;2023-03-18T01:23:36;100022.38;;;15.95;42.06
6778;BME280;3426;52.244;10.534;2023-03-18T01:26:04;100018.75;;;16.06;42.12
6778;BME280;3426;52.244;10.534;2023-03-18T01:28:31;100015.84;;;15.88;42.19
6778;BME280;3426;52.244;10.534;2023-03-18T01:30:58;100015.06;;;15.97;42.08
6778;BME280;3426;52.244;10.534;2023-03-18T01:33:25;100020.22;;;16.20;41.47
6778;BME280;3426;52.244;10.534;2023-03-18T01:35:58;100024.28;;;15.83;42.46
6778;BME280;3426;52.244;10.534;2023-03-18T01:38:27;100020.75;;;16.13;41.51
6778;BME280;3426;52.244;10.534;2023-03-18T01:40:58;100019.59;;;16.06;41.90
6778;BME280;3426;52.244;10.534;2023-03-18T01:43:28;100030.28;;;16.06;41.59
6778;BME280;3426;52.244;10.534;2023-03-18T01:45:58;100028.75;;;16.13;41.63
6778;BME280;3426;52.244;10.534;2023-03-18T01:48:28;100026.09;;;16.13;41.65
6778;BME280;3426;52.244;10.534;2023-03-18T01:50:59;100031.16;;;16.16;41.47
6778;BME280;3426;52.244;10.534;2023-03-18T01:53:31;100031.59;;;16.22;41.23
6778;BME280;3426;52.244;10.534;2023-03-18T01:56:02;100031.16;;;16.16;41.54
6778;BME280;3426;52.244;10.534;2023-03-18T01:58:38;100032.88;;;16.27;41.50
6778;BME280;3426;52.244;10.534;2023-03-18T02:01:10;100032.88;;;16.17;41.67
6778;BME280;3426;52.244;10.534;2023-03-18T02:03:40;100039.91;;;16.19;41.75
6778;BME280;3426;52.244;10.534;2023-03-18T02:06:07;100033.44;;;16.21;41.71
6778;BME280;3426;52.244;10.534;2023-03-18T02:08:37;100035.66;;;16.16;41.89
6778;BME280;3426;52.244;10.534;2023-03-18T02:11:06;100032.34;;;16.24;41.58
6778;BME280;3426;52.244;10.534;2023-03-18T02:13:41;100044.00;;;16.23;41.58
6778;BME280;3426;52.244;10.534;2023-03-18T02:16:21;100038.22;;;16.27;41.74
6778;BME280;3426;52.244;10.534;2023-03-18T02:18:53;100034.72;;;16.27;41.76
6778;BME280;3426;52.244;10.534;2023-03-18T02:27:35;100041.41;;;16.11;42.53
6778;BME280;3426;52.244;10.534;2023-03-18T02:30:15;100039.91;;;16.19;42.10
6778;BME280;3426;52.244;10.534;2023-03-18T02:32:45;100041.34;;;16.23;42.38
6778;BME280;3426;52.244;10.534;2023-03-18T02:35:13;100044.13;;;16.21;42.07
6778;BME280;3426;52.244;10.534;2023-03-18T02:37:40;100048.06;;;16.17;42.24
6778;BME280;3426;52.244;10.534;2023-03-18T02:40:25;100052.53;;;16.16;42.60
6778;BME280;3426;52.244;10.534;2023-03-18T02:42:52;100059.00;;;16.14;42.59
6778;BME280;3426;52.244;10.534;2023-03-18T02:45:34;100056.31;;;16.14;42.73
6778;BME280;3426;52.244;10.534;2023-03-18T02:48:05;100055.66;;;16.22;42.66
6778;BME280;3426;52.244;10.534;2023-03-18T02:50:33;100059.69;;;16.16;42.88
6778;BME280;3426;52.244;10.534;2023-03-18T02:53:01;100062.38;;;16.16;42.68
6778;BME280;3426;52.244;10.534;2023-03-18T02:55:29;100066.31;;;16.12;43.30
6778;BME280;3426;52.244;10.534;2023-03-18T02:57:56;100064.28;;;16.04;43.47
6778;BME280;3426;52.244;10.534;2023-03-18T03:00:22;100064.63;;;15.90;43.51
6778;BME280;3426;52.244;10.534;2023-03-18T03:02:49;100075.13;;;15.82;44.01
6778;BME280;3426;52.244;10.534;2023-03-18T03:05:16;100067.94;;;16.03;43.15
6778;BME280;3426;52.244;10.534;2023-03-18T03:07:42;100063.19;;;16.07;43.48
6778;BME280;3426;52.244;10.534;2023-03-18T03:10:09;100063.75;;;16.10;43.24
6778;BME280;3426;52.244;10.534;2023-03-18T03:12:36;100077.63;;;16.04;43.23
6778;BME280;3426;52.244;10.534;2023-03-18T03:15:05;100065.84;;;16.07;43.63
6778;BME280;3426;52.244;10.534;2023-03-18T03:17:33;100064.09;;;15.96;43.69
6778;BME280;3426;52.244;10.534;2023-03-18T03:20:01;100067.94;;;16.03;43.71
6778;BME280;3426;52.244;10.534;2023-03-18T03:22:28;100070.44;;;15.95;43.87
6778;BME280;3426;52.244;10.534;2023-03-18T03:24:55;100071.84;;;15.99;43.88
6778;BME280;3426;52.244;10.534;2023-03-18T03:27:21;100074.66;;;15.98;43.29
6778;BME280;3426;52.244;10.534;2023-03-18T03:29:48;100067.88;;;15.94;43.88
6778;BME280;3426;52.244;10.534;2023-03-18T03:32:15;100076.03;;;15.92;43.71
6778;BME280;3426;52.244;10.534;2023-03-18T03:34:42;100080.13;;;15.96;43.76
6778;BME280;3426;52.244;10.534;2023-03-18T03:37:09;100074.50;;;15.99;43.64
6778;BME280;3426;52.244;10.534;2023-03-18T03:39:35;100083.50;;;15.98;44.02
6778;BME280;3426;52.244;10.534;2023-03-18T03:42:02;100094.00;;;15.90;44.02
6778;BME280;3426;52.244;10.534;2023-03-18T03:44:28;100099.34;;;15.90;43.96
6778;BME280;3426;52.244;10.534;2023-03-18T03:46:55;100086.19;;;15.98;43.90
6778;BME280;3426;52.244;10.534;2023-03-18T03:49:22;100097.47;;;16.02;44.03
6778;BME280;3426;52.244;10.534;2023-03-18T03:51:48;100097.66;;;15.89;44.14
6778;BME280;3426;52.244;10.534;2023-03-18T03:54:15;100098.69;;;15.98;43.97
6778;BME280;3426;52.244;10.534;2023-03-18T03:56:41;100107.53;;;15.98;43.80
6778;BME280;3426;52.244;10.534;2023-03-18T03:59:08;100102.19;;;15.98;44.17
6778;BME280;3426;52.244;10.534;2023-03-18T04:01:35;100112.84;;;15.88;44.69
6778;BME280;3426;52.244;10.534;2023-03-18T04:04:02;100110.88;;;15.90;44.87
6778;BME280;3426;52.244;10.534;2023-03-18T04:06:29;100110.03;;;15.90;44.90
6778;BME280;3426;52.244;10.534;2023-03-18T04:08:56;100109.44;;;15.86;45.84
6778;BME280;3426;52.244;10.534;2023-03-18T04:11:22;100106.03;;;15.63;46.80
6778;BME280;3426;52.244;10.534;2023-03-18T04:13:49;100113.66;;;15.36;47.88
6778;BME280;3426;52.244;10.534;2023-03-18T04:16:15;100111.16;;;15.55;48.15
6778;BME280;3426;52.244;10.534;2023-03-18T04:18:42;100111.09;;;15.78;48.25
6778;BME280;3426;52.244;10.534;2023-03-18T04:21:09;100111.25;;;15.86;48.34
6778;BME280;3426;52.244;10.534;2023-03-18T04:23:35;100110.56;;;15.84;48.86
6778;BME280;3426;52.244;10.534;2023-03-18T04:26:02;100120.66;;;15.80;49.98
6778;BME280;3426;52.244;10.534;2023-03-18T04:28:30;100115.69;;;15.76;50.63
6778;BME280;3426;52.244;10.534;2023-03-18T04:30:57;100117.19;;;15.57;51.88
6778;BME280;3426;52.244;10.534;2023-03-18T04:33:23;100117.47;;;15.66;52.14
6778;BME280;3426;52.244;10.534;2023-03-18T04:35:50;100122.88;;;15.43;53.14
6778;BME280;3426;52.244;10.534;2023-03-18T04:38:17;100117.81;;;15.29;52.99
6778;BME280;3426;52.244;10.534;2023-03-18T04:40:46;100114.44;;;15.48;52.92
6778;BME280;3426;52.244;10.534;2023-03-18T04:43:12;100108.59;;;15.54;52.85
6778;BME280;3426;52.244;10.534;2023-03-18T04:45:39;100105.56;;;15.58;52.63
6778;BME280;3426;52.244;10.534;2023-03-18T04:48:05;100103.47;;;15.62;52.98
6778;BME280;3426;52.244;10.534;2023-03-18T04:50:32;100105.81;;;15.55;52.91
6778;BME280;3426;52.244;10.534;2023-03-18T04:52:59;100120.22;;;15.32;54.02
6778;BME280;3426;52.244;10.534;2023-03-18T04:55:26;100123.75;;;15.53;53.30
6778;BME280;3426;52.244;10.534;2023-03-18T04:57:52;100109.09;;;15.48;53.80
6778;BME280;3426;52.244;10.534;2023-03-18T05:00:20;100135.13;;;15.34;54.67
6778;BME280;3426;52.244;10.534;2023-03-18T05:02:47;100130.63;;;15.35;54.80
6778;BME280;3426;52.244;10.534;2023-03-18T05:05:14;100136.53;;;15.50;54.19
6778;BME280;3426;52.244;10.534;2023-03-18T05:07:40;100142.38;;;15.44;54.46
6778;BME280;3426;52.244;10.534;2023-03-18T05:10:08;100133.78;;;15.40;54.38
6778;BME280;3426;52.244;10.534;2023-03-18T05:12:35;100144.34;;;15.30;54.53
6778;BME280;3426;52.244;10.534;2023-03-18T05:15:04;100144.59;;;15.38;54.81
6778;BME280;3426;52.244;10.534;2023-03-18T05:17:30;100136.59;;;15.38;54.81
6778;BME280;3426;52.244;10.534;2023-03-18T05:19:57;100134.03;;;15.26;55.29
6778;BME280;3426;52.244;10.534;2023-03-18T05:22:23;100134.34;;;15.11;55.28
6778;BME280;3426;52.244;10.534;2023-03-18T05:24:50;100132.03;;;15.07;56.42
6778;BME280;3426;52.244;10.534;2023-03-18T05:27:18;100136.31;;;15.09;56.03
6778;BME280;3426;52.244;10.534;2023-03-18T05:29:45;100133.00;;;15.17;55.99
6778;BME280;3426;52.244;10.534;2023-03-18T05:32:12;100132.88;;;15.07;56.67
6778;BME280;3426;52.244;10.534;2023-03-18T05:34:40;100125.88;;;15.06;56.53
6778;BME280;3426;52.244;10.534;2023-03-18T05:37:09;100133.72;;;15.08;56.10
6778;BME280;3426;52.244;10.534;2023-03-18T05:39:36;100129.88;;;15.01;55.95
6778;BME280;3426;52.244;10.534;2023-03-18T05:42:03;100123.69;;;15.00;56.88
6778;BME280;3426;52.244;10.534;2023-03-18T05:44:30;100115.75;;;14.78;57.02
6778;BME280;3426;52.244;10.534;2023-03-18T05:46:57;100128.56;;;14.95;56.21
6778;BME280;3426;52.244;10.534;2023-03-18T05:49:24;100130.50;;;15.04;56.71
6778;BME280;3426;52.244;10.534;2023-03-18T05:51:53;100133.66;;;14.98;56.06
6778;BME280;3426;52.244;10.534;2023-03-18T05:54:20;100134.63;;;14.86;56.54
6778;BME280;3426;52.244;10.534;2023-03-18T05:56:47;100128.81;;;14.92;56.66
6778;BME280;3426;52.244;10.534;2023-03-18T05:59:18;100126.50;;;14.99;56.23
6778;BME280;3426;52.244;10.534;2023-03-18T06:01:45;100135.59;;;14.96;56.30
6778;BME280;3426;52.244;10.534;2023-03-18T06:04:11;100132.69;;;14.99;56.67
6778;BME280;3426;52.244;10.534;2023-03-18T06:06:38;100135.84;;;14.93;56.32
6778;BME280;3426;52.244;10.534;2023-03-18T06:09:10;100142.38;;;15.00;56.15
6778;BME280;3426;52.244;10.534;2023-03-18T06:11:38;100138.34;;;15.06;55.96
6778;BME280;3426;52.244;10.534;2023-03-18T06:14:06;100144.41;;;15.08;55.90
6778;BME280;3426;52.244;10.534;2023-03-18T06:19:09;100144.31;;;15.09;56.08
6778;BME280;3426;52.244;10.534;2023-03-18T06:21:38;100144.81;;;15.03;56.25
6778;BME280;3426;52.244;10.534;2023-03-18T06:24:05;100136.88;;;15.13;55.50
6778;BME280;3426;52.244;10.534;2023-03-18T06:26:32;100133.13;;;15.16;55.67
6778;BME280;3426;52.244;10.534;2023-03-18T06:28:59;100134.59;;;15.08;56.19
6778;BME280;3426;52.244;10.534;2023-03-18T06:31:25;100150.59;;;15.08;56.27
6778;BME280;3426;52.244;10.534;2023-03-18T06:33:52;100136.50;;;15.18;55.66
6778;BME280;3426;52.244;10.534;2023-03-18T06:36:19;100136.72;;;15.26;55.57
6778;BME280;3426;52.244;10.534;2023-03-18T06:38:46;100154.69;;;15.24;55.69
6778;BME280;3426;52.244;10.534;2023-03-18T06:41:13;100156.25;;;15.37;55.63
6778;BME280;3426;52.244;10.534;2023-03-18T06:43:39;100164.31;;;15.47;55.03
6778;BME280;3426;52.244;10.534;2023-03-18T06:46:06;100161.44;;;15.39;55.09
6778;BME280;3426;52.244;10.534;2023-03-18T06:48:33;100169.13;;;15.53;55.07
6778;BME280;3426;52.244;10.534;2023-03-18T06:51:00;100170.59;;;15.57;55.01
6778;BME280;3426;52.244;10.534;2023-03-18T06:53:26;100167.63;;;15.83;54.96
6778;BME280;3426;52.244;10.534;2023-03-18T06:55:54;100165.66;;;15.85;54.92
6778;BME280;3426;52.244;10.534;2023-03-18T06:58:22;100157.44;;;15.98;55.11
6778;BME280;3426;52.244;10.534;2023-03-18T07:00:50;100164.72;;;16.16;54.63
6778;BME280;3426;52.244;10.534;2023-03-18T07:03:16;100169.91;;;16.29;53.87
6778;BME280;3426;52.244;10.534;2023-03-18T07:05:43;100172.19;;;16.34;53.91
6778;BME280;3426;52.244;10.534;2023-03-18T07:08:09;100176.56;;;16.65;53.93
6778;BME280;3426;52.244;10.534;2023-03-18T07:10:36;100179.75;;;16.80;53.37
6778;BME280;3426;52.244;10.534;2023-03-18T07:13:02;100187.03;;;16.48;55.85
6778;BME280;3426;52.244;10.534;2023-03-18T07:18:55;100194.13;;;16.79;52.79
6778;BME280;3426;52.244;10.534;2023-03-18T07:21:24;100202.59;;;16.63;53.27
6778;BME280;3426;52.244;10.534;2023-03-18T07:23:57;100188.91;;;16.57;53.78
6778;BME280;3426;52.244;10.534;2023-03-18T07:26:24;100192.13;;;16.60;53.23
6778;BME280;3426;52.244;10.534;2023-03-18T07:28:50;100200.44;;;16.57;55.09
6778;BME280;3426;52.244;10.534;2023-03-18T07:31:17;100198.09;;;16.94;54.06
6778;BME280;3426;52.244;10.534;2023-03-18T07:33:44;100199.97;;;16.73;53.41
6778;BME280;3426;52.244;10.534;2023-03-18T07:36:13;100200.47;;;16.88;54.03
6778;BME280;3426;52.244;10.534;2023-03-18T07:38:40;100213.34;;;17.04;54.87
6778;BME280;3426;52.244;10.534;2023-03-18T07:41:07;100217.25;;;17.00;55.00
6778;BME280;3426;52.244;10.534;2023-03-18T07:43:33;100220.44;;;17.14;54.01
6778;BME280;3426;52.244;10.534;2023-03-18T07:46:00;100224.53;;;16.88;56.32
6778;BME280;3426;52.244;10.534;2023-03-18T07:48:26;100226.25;;;16.68;58.26
6778;BME280;3426;52.244;10.534;2023-03-18T07:51:25;100222.56;;;16.17;58.32
6778;BME280;3426;52.244;10.534;2023-03-18T07:53:55;100223.53;;;16.58;57.12
6778;BME280;3426;52.244;10.534;2023-03-18T07:56:25;100227.22;;;16.67;57.44
6778;BME280;3426;52.244;10.534;2023-03-18T07:58:52;100232.38;;;17.10;56.56
6778;BME280;3426;52.244;10.534;2023-03-18T08:01:18;100232.22;;;17.62;55.22
6778;BME280;3426;52.244;10.534;2023-03-18T08:03:46;100240.50;;;17.39;56.29
6778;BME280;3426;52.244;10.534;2023-03-18T08:06:16;100233.56;;;17.77;54.79
6778;BME280;3426;52.244;10.534;2023-03-18T08:08:45;100239.88;;;18.15;52.42
6778;BME280;3426;52.244;10.534;2023-03-18T08:11:12;100243.94;;;19.04;51.66
6778;BME280;3426;52.244;10.534;2023-03-18T08:14:09;100243.63;;;18.70;53.45
6778;BME280;3426;52.244;10.534;2023-03-18T08:16:36;100244.75;;;18.77;51.02
6778;BME280;3426;52.244;10.534;2023-03-18T08:19:02;100244.19;;;18.64;51.39
6778;BME280;3426;52.244;10.534;2023-03-18T08:21:29;100253.19;;;18.83;51.91
6778;BME280;3426;52.244;10.534;2023-03-18T08:23:56;100245.91;;;19.12;51.15
6778;BME280;3426;52.244;10.534;2023-03-18T08:26:23;100256.91;;;19.19;50.99
6778;BME280;3426;52.244;10.534;2023-03-18T08:28:49;100249.88;;;18.42;53.90
6778;BME280;3426;52.244;10.534;2023-03-18T08:31:16;100255.97;;;18.24;53.77
6778;BME280;3426;52.244;10.534;2023-03-18T08:33:42;100256.53;;;17.89;55.23
6778;BME280;3426;52.244;10.534;2023-03-18T08:36:09;100259.28;;;17.18;56.99
6778;BME280;3426;52.244;10.534;2023-03-18T08:38:35;100261.75;;;18.30;53.74
6778;BME280;3426;52.244;10.534;2023-03-18T08:41:02;100268.81;;;17.82;55.50
6778;BME280;3426;52.244;10.534;2023-03-18T08:43:29;100270.78;;;17.00;57.51
6778;BME280;3426;52.244;10.534;2023-03-18T08:45:55;100261.53;;;17.54;57.21
6778;BME280;3426;52.244;10.534;2023-03-18T08:48:23;100270.84;;;17.59;56.70
6778;BME280;3426;52.244;10.534;2023-03-18T08:50:50;100270.41;;;17.54;57.37
6778;BME280;3426;52.244;10.534;2023-03-18T08:53:18;100267.63;;;17.65;56.16
6778;BME280;3426;52.244;10.534;2023-03-18T08:55:45;100281.13;;;17.54;57.33
6778;BME280;3426;52.244;10.534;2023-03-18T08:58:12;100269.53;;;17.94;56.30
6778;BME280;3426;52.244;10.534;2023-03-18T09:00:40;100279.06;;;17.87;56.32
6778;BME280;3426;52.244;10.534;2023-03-18T09:03:08;100273.03;;;18.23;55.16
6778;BME280;3426;52.244;10.534;2023-03-18T09:05:35;100275.38;;;18.85;53.19
6778;BME280;3426;52.244;10.534;2023-03-18T09:08:02;100271.91;;;18.55;54.31
6778;BME280;3426;52.244;10.534;2023-03-18T09:10:30;100285.31;;;17.87;56.36
6778;BME280;3426;52.244;10.534;2023-03-18T09:12:56;100275.13;;;18.78;53.46
6778;BME280;3426;52.244;10.534;2023-03-18T09:15:23;100270.16;;;19.20;52.73
6778;BME280;3426;52.244;10.534;2023-03-18T09:17:49;100272.44;;;18.49;54.37
6778;BME280;3426;52.244;10.534;2023-03-18T09:20:35;100273.25;;;18.88;53.61
6778;BME280;3426;52.244;10.534;2023-03-18T09:23:03;100270.56;;;19.25;54.58
6778;BME280;3426;52.244;10.534;2023-03-18T09:25:30;100272.09;;;19.65;51.87
6778;BME280;3426;52.244;10.534;2023-03-18T09:31:30;100266.09;;;20.43;49.62
6778;BME280;3426;52.244;10.534;2023-03-18T09:33:57;100272.94;;;20.19;49.74
6778;BME280;3426;52.244;10.534;2023-03-18T09:37:10;100271.09;;;20.55;48.21
6778;BME280;3426;52.244;10.534;2023-03-18T09:39:41;100274.56;;;20.12;49.60
6778;BME280;3426;52.244;10.534;2023-03-18T09:44:59;100289.66;;;19.50;52.01
6778;BME280;3426;52.244;10.534;2023-03-18T09:57:48;100285.41;;;18.63;53.64
6778;BME280;3426;52.244;10.534;2023-03-18T10:00:30;100288.94;;;18.83;52.33
6778;BME280;3426;52.244;10.534;2023-03-18T10:03:02;100294.53;;;19.37;51.70
6778;BME280;3426;52.244;10.534;2023-03-18T10:06:05;100290.25;;;18.50;53.59
6778;BME280;3426;52.244;10.534;2023-03-18T10:08:44;100296.16;;;18.63;54.31
6778;BME280;3426;52.244;10.534;2023-03-18T10:19:35;100293.19;;;18.76;54.23
6778;BME280;3426;52.244;10.534;2023-03-18T10:22:22;100295.50;;;19.08;52.04
6778;BME280;3426;52.244;10.534;2023-03-18T10:24:57;100302.66;;;19.54;51.63
6778;BME280;3426;52.244;10.534;2023-03-18T10:27:48;100302.06;;;18.86;52.93
6778;BME280;3426;52.244;10.534;2023-03-18T10:32:51;100305.88;;;19.30;53.32
6778;BME280;3426;52.244;10.534;2023-03-18T10:35:30;100312.59;;;20.17;50.44
6778;BME280;3426;52.244;10.534;2023-03-18T10:38:14;100306.22;;;19.18;52.17
6778;BME280;3426;52.244;10.534;2023-03-18T10:40:44;100310.78;;;18.98;51.65
6778;BME280;3426;52.244;10.534;2023-03-18T10:43:16;100310.00;;;18.68;50.70
6778;BME280;3426;52.244;10.534;2023-03-18T10:45:45;100314.28;;;19.08;50.78
6778;BME280;3426;52.244;10.534;2023-03-18T10:48:19;100305.06;;;19.20;51.91
6778;BME280;3426;52.244;10.534;2023-03-18T10:54:18;100307.75;;;19.20;51.63
6778;BME280;3426;52.244;10.534;2023-03-18T10:56:48;100312.72;;;19.05;52.04
6778;BME280;3426;52.244;10.534;2023-03-18T10:59:20;100317.31;;;18.95;52.50
6778;BME280;3426;52.244;10.534;2023-03-18T11:01:52;100307.06;;;19.18;51.21
6778;BME280;3426;52.244;10.534;2023-03-18T11:04:23;100305.31;;;18.90;51.42
6778;BME280;3426;52.244;10.534;2023-03-18T11:07:01;100313.22;;;20.11;49.64
6778;BME280;3426;52.244;10.534;2023-03-18T11:09:34;100319.97;;;19.42;50.11
6778;BME280;3426;52.244;10.534;2023-03-18T11:12:03;100318.09;;;19.80;49.53
6778;BME280;3426;52.244;10.534;2023-03-18T11:14:31;100322.09;;;19.01;50.45
6778;BME280;3426;52.244;10.534;2023-03-18T11:17:19;100327.88;;;19.34;50.11
6778;BME280;3426;52.244;10.534;2023-03-18T11:19:57;100318.78;;;19.82;50.56
6778;BME280;3426;52.244;10.534;2023-03-18T11:22:26;100314.25;;;19.82;49.78
6778;BME280;3426;52.244;10.534;2023-03-18T11:30:29;100319.75;;;19.16;51.01
6778;BME280;3426;52.244;10.534;2023-03-18T11:33:14;100330.31;;;19.74;48.56
6778;BME280;3426;52.244;10.534;2023-03-18T11:35:49;100326.06;;;19.35;48.68
6778;BME280;3426;52.244;10.534;2023-03-18T11:38:33;100316.03;;;19.92;48.69
6778;BME280;3426;52.244;10.534;2023-03-18T11:43:35;100323.06;;;20.20;47.18
6778;BME280;3426;52.244;10.534;2023-03-18T11:46:07;100323.53;;;19.70;49.58
6778;BME280;3426;52.244;10.534;2023-03-18T11:48:39;100324.59;;;20.23;47.65
6778;BME280;3426;52.244;10.534;2023-03-18T11:56:59;100318.38;;;19.12;50.34
6778;BME280;3426;52.244;10.534;2023-03-18T12:13:31;100301.44;;;19.39;47.11
6778;BME280;3426;52.244;10.534;2023-03-18T12:22:10;100305.88;;;19.58;46.98
6778;BME280;3426;52.244;10.534;2023-03-18T12:27:26;100306.19;;;19.82;47.08
6778;BME280;3426;52.244;10.534;2023-03-18T12:33:08;100302.63;;;19.64;47.35
6778;BME280;3426;52.244;10.534;2023-03-18T12:38:43;100288.72;;;20.76;44.20
6778;BME280;3426;52.244;10.534;2023-03-18T12:46:44;100302.34;;;20.74;44.09
6778;BME280;3426;52.244;10.534;2023-03-18T12:49:33;100304.13;;;20.12;45.57
6778;BME280;3426;52.244;10.534;2023-03-18T12:54:31;100294.13;;;21.02;44.16
6778;BME280;3426;52.244;10.534;2023-03-18T12:57:03;100302.41;;;20.82;43.68
6778;BME280;3426;52.244;10.534;2023-03-18T12:59:37;100288.72;;;21.02;44.43
6778;BME280;3426;52.244;10.534;2023-03-18T13:02:27;100293.63;;;20.36;44.25
6778;BME280;3426;52.244;10.534;2023-03-18T13:05:00;100300.47;;;20.31;44.85
6778;BME280;3426;52.244;10.534;2023-03-18T13:07:36;100303.06;;;20.23;44.93
6778;BME280;3426;52.244;10.534;2023-03-18T13:10:22;100295.84;;;20.23;44.59
6778;BME280;3426;52.244;10.534;2023-03-18T13:12:59;100285.31;;;20.48;43.74
6778;BME280;3426;52.244;10.534;2023-03-18T13:15:39;100279.97;;;21.00;43.61
6778;BME280;3426;52.244;10.534;2023-03-18T13:18:16;100277.31;;;21.08;43.97
6778;BME280;3426;52.244;10.534;2023-03-18T13:20:45;100292.72;;;20.46;44.16
6778;BME280;3426;52.244;10.534;2023-03-18T13:29:01;100285.19;;;20.31;44.50
6778;BME280;3426;52.244;10.534;2023-03-18T13:42:46;100288.50;;;20.69;44.45
6778;BME280;3426;52.244;10.534;2023-03-18T13:47:55;100291.19;;;20.25;43.86
6778;BME280;3426;52.244;10.534;2023-03-18T13:52:57;100294.38;;;19.75;45.83
6778;BME280;3426;52.244;10.534;2023-03-18T13:55:48;100294.72;;;20.26;44.84
6778;BME280;3426;52.244;10.534;2023-03-18T13:58:27;100297.44;;;19.80;45.34
6778;BME280;3426;52.244;10.534;2023-03-18T14:03:29;100291.59;;;19.85;44.40
6778;BME280;3426;52.244;10.534;2023-03-18T14:13:51;100291.16;;;20.61;43.61
6778;BME280;3426;52.244;10.534;2023-03-18T14:16:23;100292.38;;;19.77;45.36
6778;BME280;3426;52.244;10.534;2023-03-18T14:21:51;100292.63;;;20.37;43.70
6778;BME280;3426;52.244;10.534;2023-03-18T14:27:13;100281.25;;;20.87;43.04
6778;BME280;3426;52.244;10.534;2023-03-18T14:29:45;100288.75;;;19.69;44.93
6778;BME280;3426;52.244;10.534;2023-03-18T14:38:22;100293.31;;;20.57;43.49
6778;BME280;3426;52.244;10.534;2023-03-18T14:40:54;100291.63;;;20.03;43.88
6778;BME280;3426;52.244;10.534;2023-03-18T14:43:37;100289.59;;;20.41;43.36
6778;BME280;3426;52.244;10.534;2023-03-18T14:46:15;100286.31;;;20.90;42.53
6778;BME280;3426;52.244;10.534;2023-03-18T14:48:43;100284.41;;;20.83;41.78
6778;BME280;3426;52.244;10.534;2023-03-18T14:51:15;100277.66;;;21.05;41.05
6778;BME280;3426;52.244;10.534;2023-03-18T14:53:46;100292.38;;;19.77;43.50
6778;BME280;3426;52.244;10.534;2023-03-18T14:56:21;100282.13;;;20.08;43.72
6778;BME280;3426;52.244;10.534;2023-03-18T14:58:51;100281.94;;;19.92;43.69
6778;BME280;3426;52.244;10.534;2023-03-18T15:01:23;100280.56;;;20.06;44.04
6778;BME280;3426;52.244;10.534;2023-03-18T15:03:52;100274.66;;;19.57;44.83
6778;BME280;3426;52.244;10.534;2023-03-18T15:06:22;100285.34;;;19.02;45.81
6778;BME280;3426;52.244;10.534;2023-03-18T15:09:00;100274.88;;;19.91;44.15
6778;BME280;3426;52.244;10.534;2023-03-18T15:11:28;100275.63;;;19.28;45.12
6778;BME280;3426;52.244;10.534;2023-03-18T15:13:55;100278.38;;;19.46;44.83
6778;BME280;3426;52.244;10.534;2023-03-18T15:16:25;100278.31;;;19.56;44.49
6778;BME280;3426;52.244;10.534;2023-03-18T15:18:55;100271.72;;;19.96;44.21
6778;BME280;3426;52.244;10.534;2023-03-18T15:21:25;100269.03;;;20.75;42.71
6778;BME280;3426;52.244;10.534;2023-03-18T15:23:56;100271.63;;;20.41;43.33
6778;BME280;3426;52.244;10.534;2023-03-18T15:29:32;100273.16;;;20.08;43.63
6778;BME280;3426;52.244;10.534;2023-03-18T15:32:07;100280.72;;;19.87;43.90
6778;BME280;3426;52.244;10.534;2023-03-18T15:34:36;100273.72;;;20.29;43.09